M/y Arion — 9HB2161 — position and weather

sailwx.info

Track history (hours):
 
Tides and Currents Weather Stations Pressure Air Temp Water Temp Dewpoint Dewpoint Depression Visibility Wind Speed Wind Dir Waves Ship Positions

M/y Arion

Last reported at 2014-Aug-11 08:13 UTC. Time now 2014-Aug-30 20:35 UTC.
Position N 43°32' E 007°02'.
Warning: this ship's position is 19 days out of date.

Length 37 m; draft 2.2 m.

Type: Other ship. MMSI: 215479000.

Date/timePositionNaut miles runAvg speedWind from/ knotsBaromVisibWave heightAir tempDewpointWater temp
2014-Aug-11 08:13N 43°32' E 007°02'0 0.0
2014-Aug-11 07:25N 43°32' E 007°02'0 0.0
2014-Aug-11 06:31N 43°32' E 007°02'0 0.0
2014-Aug-11 05:25N 43°32' E 007°02'0 0.0
2014-Aug-11 04:13N 43°32' E 007°02'0 0.0
2014-Aug-11 01:13N 43°32' E 007°02'0 0.0
2014-Aug-11 00:31N 43°32' E 007°02'0 0.0
2014-Aug-10 22:31N 43°32' E 007°02'0 0.0
2014-Aug-10 17:28N 43°32' E 007°02'1 0.9
2014-Aug-10 16:28N 43°32' E 007°01'5 4.6
2014-Aug-10 15:29N 43°33' E 007°07'0 0.0
2014-Aug-10 14:05N 43°33' E 007°07'0 0.0
2014-Aug-10 13:11N 43°33' E 007°07'0 0.0
2014-Aug-10 12:23N 43°33' E 007°07'0 0.0
2014-Aug-10 11:23N 43°33' E 007°07'0 0.1
2014-Aug-10 10:33N 43°33' E 007°08'4 3.9
2014-Aug-10 09:29N 43°32' E 007°02'0 0.0
2014-Aug-10 08:32N 43°32' E 007°02'0 0.0
2014-Aug-10 07:32N 43°32' E 007°02'0 0.0
2014-Aug-10 06:17N 43°32' E 007°02'0 0.0
2014-Aug-10 02:05N 43°32' E 007°02'0 0.0
2014-Aug-09 22:11N 43°32' E 007°02'0 0.0
2014-Aug-09 16:11N 43°32' E 007°02'0 0.0
2014-Aug-09 14:29N 43°32' E 007°02'0 0.0
2014-Aug-09 11:32N 43°32' E 007°02'0 0.0
2014-Aug-09 09:23N 43°32' E 007°02'0 0.0
2014-Aug-08 21:05N 43°32' E 007°02'0 0.0
2014-Aug-08 17:05N 43°32' E 007°02'0 0.3
2014-Aug-08 16:32N 43°32' E 007°02'4 4.2
2014-Aug-08 15:32N 43°33' E 007°07'0 0.0
2014-Aug-08 14:32N 43°33' E 007°07'0 0.0
2014-Aug-08 13:20N 43°33' E 007°07'0 0.0
2014-Aug-08 12:32N 43°33' E 007°07'1 0.2
2014-Aug-08 09:33N 43°32' E 007°07'4 3.6
2014-Aug-08 08:33N 43°32' E 007°02'0 0.0
2014-Aug-08 07:32N 43°32' E 007°02'0 0.0
2014-Aug-08 06:32N 43°32' E 007°02'0 0.0
2014-Aug-08 05:34N 43°32' E 007°02'0 0.0
2014-Aug-08 04:33N 43°32' E 007°02'0 0.0
2014-Aug-08 02:09N 43°32' E 007°02'0 0.0
2014-Aug-08 01:20N 43°32' E 007°02'0 0.0
2014-Aug-08 00:21N 43°32' E 007°02'0 0.0
2014-Aug-07 23:27N 43°32' E 007°02'0 0.0
2014-Aug-07 22:28N 43°32' E 007°02'0 0.0
2014-Aug-07 21:32N 43°32' E 007°02'0 0.0
2014-Aug-07 20:33N 43°32' E 007°02'0 0.0
2014-Aug-07 19:33N 43°32' E 007°02'0 0.0
2014-Aug-07 18:26N 43°32' E 007°02'1 0.9
2014-Aug-07 17:33N 43°32' E 007°01'16 3.9
2014-Aug-07 13:25N 43°42' E 007°19'0 0.0
2014-Aug-07 11:26N 43°42' E 007°19'2 1.8
2014-Aug-07 10:32N 43°40' E 007°19'1513.4
2014-Aug-07 09:26N 43°32' E 007°02'0 0.0
2014-Aug-07 05:21N 43°32' E 007°02'3 0.3
2014-Aug-06 17:28N 43°31' E 007°06'2 0.9
2014-Aug-06 15:26N 43°33' E 007°07'0 0.3
2014-Aug-06 14:27N 43°32' E 007°08'3 3.0
2014-Aug-06 13:33N 43°35' E 007°08'0 0.0
2014-Aug-06 12:33N 43°35' E 007°08'0 0.0
2014-Aug-06 11:33N 43°35' E 007°08'11 0.4
2014-Aug-05 09:32N 43°41' E 007°20'4 0.3
2014-Aug-04 16:22N 43°43' E 007°26'1720.5
2014-Aug-04 15:32N 43°32' E 007°08'1 0.5
2014-Aug-04 14:24N 43°33' E 007°07'2 2.8
2014-Aug-04 13:32N 43°31' E 007°05'2 0.9
2014-Aug-04 11:29N 43°31' E 007°03'4 0.2
2014-Aug-03 11:22N 43°33' E 007°07'0 0.0
2014-Aug-03 10:31N 43°33' E 007°07'4 0.2
2014-Aug-02 15:31N 43°31' E 007°02'0 0.0
2014-Aug-02 13:33N 43°31' E 007°02'0 0.0
2014-Aug-02 12:33N 43°31' E 007°02'2 0.8
2014-Aug-02 10:18N 43°32' E 007°02'1 1.2
2014-Aug-02 09:33N 43°33' E 007°01'0 0.0
2014-Aug-01 13:32N 43°33' E 007°01'0 0.0
2014-Aug-01 12:12N 43°33' E 007°01'  
Track history (hours):
 
Tides and Currents Weather Stations Pressure Air Temp Water Temp Dewpoint Dewpoint Depression Visibility Wind Speed Wind Dir Waves Ship Positions

M/y Arion

Last reported at 2014-Aug-11 08:13 UTC. Time now 2014-Aug-30 20:35 UTC.
Position N 43°32' E 007°02'.
Warning: this ship's position is 19 days out of date.

Length 37 m; draft 2.2 m.

Type: Other ship. MMSI: 215479000.

Date/timePositionNaut miles runAvg speedWind from/ knotsBaromVisibWave heightAir tempDewpointWater temp
2014-Aug-11 08:13N 43°32' E 007°02'0 0.0
2014-Aug-11 07:25N 43°32' E 007°02'0 0.0
2014-Aug-11 06:31N 43°32' E 007°02'0 0.0
2014-Aug-11 05:25N 43°32' E 007°02'0 0.0
2014-Aug-11 04:13N 43°32' E 007°02'0 0.0
2014-Aug-11 01:13N 43°32' E 007°02'0 0.0
2014-Aug-11 00:31N 43°32' E 007°02'0 0.0
2014-Aug-10 22:31N 43°32' E 007°02'0 0.0
2014-Aug-10 17:28N 43°32' E 007°02'1 0.9
2014-Aug-10 16:28N 43°32' E 007°01'5 4.6
2014-Aug-10 15:29N 43°33' E 007°07'0 0.0
2014-Aug-10 14:05N 43°33' E 007°07'0 0.0
2014-Aug-10 13:11N 43°33' E 007°07'0 0.0
2014-Aug-10 12:23N 43°33' E 007°07'0 0.0
2014-Aug-10 11:23N 43°33' E 007°07'0 0.1
2014-Aug-10 10:33N 43°33' E 007°08'4 3.9
2014-Aug-10 09:29N 43°32' E 007°02'0 0.0
2014-Aug-10 08:32N 43°32' E 007°02'0 0.0
2014-Aug-10 07:32N 43°32' E 007°02'0 0.0
2014-Aug-10 06:17N 43°32' E 007°02'0 0.0
2014-Aug-10 02:05N 43°32' E 007°02'0 0.0
2014-Aug-09 22:11N 43°32' E 007°02'0 0.0
2014-Aug-09 16:11N 43°32' E 007°02'0 0.0
2014-Aug-09 14:29N 43°32' E 007°02'0 0.0
2014-Aug-09 11:32N 43°32' E 007°02'0 0.0
2014-Aug-09 09:23N 43°32' E 007°02'0 0.0
2014-Aug-08 21:05N 43°32' E 007°02'0 0.0
2014-Aug-08 17:05N 43°32' E 007°02'0 0.3
2014-Aug-08 16:32N 43°32' E 007°02'4 4.2
2014-Aug-08 15:32N 43°33' E 007°07'0 0.0
2014-Aug-08 14:32N 43°33' E 007°07'0 0.0
2014-Aug-08 13:20N 43°33' E 007°07'0 0.0
2014-Aug-08 12:32N 43°33' E 007°07'1 0.2
2014-Aug-08 09:33N 43°32' E 007°07'4 3.6
2014-Aug-08 08:33N 43°32' E 007°02'0 0.0
2014-Aug-08 07:32N 43°32' E 007°02'0 0.0
2014-Aug-08 06:32N 43°32' E 007°02'0 0.0
2014-Aug-08 05:34N 43°32' E 007°02'0 0.0
2014-Aug-08 04:33N 43°32' E 007°02'0 0.0
2014-Aug-08 02:09N 43°32' E 007°02'0 0.0
2014-Aug-08 01:20N 43°32' E 007°02'0 0.0
2014-Aug-08 00:21N 43°32' E 007°02'0 0.0
2014-Aug-07 23:27N 43°32' E 007°02'0 0.0
2014-Aug-07 22:28N 43°32' E 007°02'0 0.0
2014-Aug-07 21:32N 43°32' E 007°02'0 0.0
2014-Aug-07 20:33N 43°32' E 007°02'0 0.0
2014-Aug-07 19:33N 43°32' E 007°02'0 0.0
2014-Aug-07 18:26N 43°32' E 007°02'1 0.9
2014-Aug-07 17:33N 43°32' E 007°01'16 3.9
2014-Aug-07 13:25N 43°42' E 007°19'0 0.0
2014-Aug-07 11:26N 43°42' E 007°19'2 1.8
2014-Aug-07 10:32N 43°40' E 007°19'1513.4
2014-Aug-07 09:26N 43°32' E 007°02'0 0.0
2014-Aug-07 05:21N 43°32' E 007°02'3 0.3
2014-Aug-06 17:28N 43°31' E 007°06'2 0.9
2014-Aug-06 15:26N 43°33' E 007°07'0 0.3
2014-Aug-06 14:27N 43°32' E 007°08'3 3.0
2014-Aug-06 13:33N 43°35' E 007°08'0 0.0
2014-Aug-06 12:33N 43°35' E 007°08'0 0.0
2014-Aug-06 11:33N 43°35' E 007°08'11 0.4
2014-Aug-05 09:32N 43°41' E 007°20'4 0.3
2014-Aug-04 16:22N 43°43' E 007°26'1720.5
2014-Aug-04 15:32N 43°32' E 007°08'1 0.5
2014-Aug-04 14:24N 43°33' E 007°07'2 2.8
2014-Aug-04 13:32N 43°31' E 007°05'2 0.9
2014-Aug-04 11:29N 43°31' E 007°03'4 0.2
2014-Aug-03 11:22N 43°33' E 007°07'0 0.0
2014-Aug-03 10:31N 43°33' E 007°07'4 0.2
2014-Aug-02 15:31N 43°31' E 007°02'0 0.0
2014-Aug-02 13:33N 43°31' E 007°02'0 0.0
2014-Aug-02 12:33N 43°31' E 007°02'2 0.8
2014-Aug-02 10:18N 43°32' E 007°02'1 1.2
2014-Aug-02 09:33N 43°33' E 007°01'0 0.0
2014-Aug-01 13:32N 43°33' E 007°01'0 0.0
2014-Aug-01 12:12N 43°33' E 007°01'  

Dump ship's entire track history